Sun Chief — WDG9758 — position and weather

sailwx.info

Track history (hours):
 
Tides and Currents Weather Stations Pressure Air Temp Water Temp Dewpoint Dewpoint Depression Visibility Wind Speed Wind Dir Waves Ship Positions

Sun Chief

Owner: Vane Line Bunkering INC, Philadelphia, PA. More information available from US FCC via Universal Licensing System and Coast Guard Vessel Documentation Center.

Last reported at 2017-Nov-16 14:03 UTC. Time now 2017-Dec-15 16:06 UTC.
Position N 32°46' W 079°53'.
Warning: this ship's position is 29 days out of date.

; draft 2.3 m.

Type: Tug. MMSI: 367590860.

Date/timePositionNaut miles runAvg speedWind from/ knotsBaromVisibWave heightAir tempDewpointWater temp
2017-Nov-16 14:03N 32°46' W 079°53'0 0.1
2017-Nov-16 13:57N 32°46' W 079°53'0 0.0
2017-Nov-16 13:30N 32°46' W 079°53'0 0.0
2017-Nov-16 13:00N 32°46' W 079°53'1 2.2
2017-Nov-16 12:30N 32°47' W 079°54'6 5.7
2017-Nov-16 11:30N 32°52' W 079°57'2 3.5
2017-Nov-16 11:00N 32°53' W 079°58'0 0.0
2017-Nov-16 10:30N 32°53' W 079°58'0 0.0
2017-Nov-16 10:00N 32°53' W 079°58'0 0.0
2017-Nov-16 09:30N 32°53' W 079°58'0 0.0
2017-Nov-16 09:00N 32°53' W 079°58'0 0.0
2017-Nov-16 08:30N 32°53' W 079°58'0 0.0
2017-Nov-16 08:00N 32°53' W 079°58'0 0.0
2017-Nov-16 07:30N 32°53' W 079°58'0 0.0
2017-Nov-16 07:00N 32°53' W 079°58'0 0.0
2017-Nov-16 06:31N 32°53' W 079°58'0 0.0
2017-Nov-16 06:00N 32°53' W 079°58'0 0.9
2017-Nov-16 05:30N 32°53' W 079°58'2 4.7
2017-Nov-16 05:00N 32°51' W 079°56'2 4.5
2017-Nov-16 04:30N 32°49' W 079°55'2 4.6
2017-Nov-16 04:01N 32°47' W 079°54'2 3.1
2017-Nov-16 03:30N 32°46' W 079°53'0 0.0
2017-Nov-16 03:00N 32°46' W 079°53'0 0.0
2017-Nov-16 02:30N 32°46' W 079°53'0 0.0
2017-Nov-16 02:00N 32°46' W 079°53'0 0.0
2017-Nov-16 01:30N 32°46' W 079°53'0 0.1
2017-Nov-16 01:00N 32°46' W 079°53'0 0.0
2017-Nov-16 00:30N 32°46' W 079°53'5 1.4
2017-Nov-15 20:51N 32°51' W 079°56'2 5.7
2017-Nov-15 20:30N 32°52' W 079°58'2 3.2
2017-Nov-15 20:00N 32°53' W 079°58'0 0.0
2017-Nov-15 19:30N 32°53' W 079°58'0 0.0
2017-Nov-15 19:00N 32°53' W 079°58'0 0.0
2017-Nov-15 18:30N 32°53' W 079°58'0 0.0
2017-Nov-15 18:00N 32°53' W 079°58'0 0.0
2017-Nov-15 17:30N 32°53' W 079°58'0 0.0
2017-Nov-15 17:00N 32°53' W 079°58'0 0.0
2017-Nov-15 16:30N 32°53' W 079°58'0 0.0
2017-Nov-15 16:00N 32°53' W 079°58'0 0.0
2017-Nov-15 14:21N 32°53' W 079°58'0 0.0
2017-Nov-15 14:00N 32°53' W 079°58'0 0.0
2017-Nov-15 13:31N 32°53' W 079°58'0 0.0
2017-Nov-15 13:00N 32°53' W 079°58'1 1.9
2017-Nov-15 12:31N 32°52' W 079°58'3 5.8
2017-Nov-15 12:00N 32°50' W 079°56'2 3.7
2017-Nov-15 11:30N 32°50' W 079°54'0 0.0
2017-Nov-15 11:01N 32°50' W 079°54'0 0.0
2017-Nov-15 10:30N 32°50' W 079°54'0 0.0
2017-Nov-15 10:00N 32°50' W 079°54'0 0.0
2017-Nov-15 09:30N 32°50' W 079°54'0 0.0
2017-Nov-15 09:01N 32°50' W 079°54'0 0.0
2017-Nov-15 08:30N 32°50' W 079°54'0 0.0
2017-Nov-15 08:01N 32°50' W 079°54'0 0.0
2017-Nov-15 07:30N 32°50' W 079°54'0 0.0
2017-Nov-15 07:01N 32°50' W 079°54'0 0.0
2017-Nov-15 06:31N 32°50' W 079°54'0 0.0
2017-Nov-15 06:00N 32°50' W 079°54'0 0.1
2017-Nov-15 05:30N 32°50' W 079°54'2 3.3
2017-Nov-15 05:01N 32°49' W 079°55'4 7.3
2017-Nov-15 04:31N 32°52' W 079°58'2 4.0
2017-Nov-15 04:00N 32°54' W 079°58'0 0.0
2017-Nov-15 03:30N 32°54' W 079°58'0 0.0
2017-Nov-15 03:01N 32°54' W 079°58'0 0.0
2017-Nov-15 02:30N 32°54' W 079°58'0 0.0
2017-Nov-15 02:00N 32°54' W 079°58'0 0.0
2017-Nov-15 01:30N 32°54' W 079°58'0 0.0
2017-Nov-15 01:00N 32°54' W 079°58'0 0.0
2017-Nov-15 00:30N 32°54' W 079°58'0 0.0
2017-Nov-15 00:00N 32°54' W 079°58'0 0.0
2017-Nov-14 23:30N 32°54' W 079°58'1 1.5
2017-Nov-14 23:00N 32°53' W 079°58'3 6.2
2017-Nov-14 22:31N 32°51' W 079°56'1 2.0
2017-Nov-14 22:01N 32°50' W 079°57'0 0.0
2017-Nov-14 21:31N 32°50' W 079°57'0 0.0
2017-Nov-14 21:00N 32°50' W 079°57'0 0.0
2017-Nov-14 20:30N 32°50' W 079°57'0 0.0
2017-Nov-14 20:00N 32°50' W 079°57'0 0.0
2017-Nov-14 19:30N 32°50' W 079°57'0 0.0
2017-Nov-14 19:00N 32°50' W 079°57'0 0.0
2017-Nov-14 18:31N 32°50' W 079°57'0 0.0
2017-Nov-14 18:00N 32°50' W 079°57'0 0.0
2017-Nov-14 17:31N 32°50' W 079°57'0 0.0
2017-Nov-14 17:00N 32°50' W 079°57'0 0.0
2017-Nov-14 16:31N 32°50' W 079°57'0 0.0
2017-Nov-14 16:01N 32°50' W 079°57'0 0.0
2017-Nov-14 15:30N 32°50' W 079°57'0 0.0
2017-Nov-14 15:00N 32°50' W 079°57'0 0.0
2017-Nov-14 14:31N 32°50' W 079°57'0 0.0
2017-Nov-14 14:00N 32°50' W 079°57'0 0.1
2017-Nov-14 13:19N 32°50' W 079°57'1 2.0
2017-Nov-14 13:00N 32°50' W 079°56'3 7.0
2017-Nov-14 12:30N 32°53' W 079°58'1 2.1
2017-Nov-14 12:00N 32°54' W 079°58'0 0.0
2017-Nov-14 11:30N 32°54' W 079°58'0 0.0
2017-Nov-14 11:00N 32°54' W 079°58'0 0.0
2017-Nov-14 10:31N 32°54' W 079°58'0 0.0
2017-Nov-14 10:00N 32°54' W 079°58'0 0.0
2017-Nov-14 09:30N 32°54' W 079°58'0 0.0
2017-Nov-14 09:00N 32°54' W 079°58'0 0.0
2017-Nov-14 08:30N 32°54' W 079°58'0 0.3
2017-Nov-14 08:00N 32°54' W 079°57'1 2.0
2017-Nov-14 07:30N 32°53' W 079°58'3 6.1
2017-Nov-14 07:00N 32°51' W 079°56'1 2.3
2017-Nov-14 06:30N 32°50' W 079°56'0 0.0
2017-Nov-14 06:00N 32°50' W 079°56'0 0.0
2017-Nov-14 05:31N 32°50' W 079°56'0 0.0
2017-Nov-14 05:01N 32°50' W 079°56'0 0.0
2017-Nov-14 04:30N 32°50' W 079°56'0 0.0
2017-Nov-14 04:01N 32°50' W 079°56'0 0.0
2017-Nov-14 03:31N 32°50' W 079°56'0 0.0
2017-Nov-14 03:00N 32°50' W 079°56'0 0.0
2017-Nov-14 02:30N 32°50' W 079°56'0 0.0
2017-Nov-14 02:00N 32°50' W 079°56'0 0.0
2017-Nov-14 01:30N 32°50' W 079°56'0 0.0
2017-Nov-14 01:00N 32°50' W 079°56'0 0.0
2017-Nov-14 00:30N 32°50' W 079°56'0 0.0
2017-Nov-14 00:00N 32°50' W 079°56'0 0.0
2017-Nov-13 23:30N 32°50' W 079°56'0 0.2
2017-Nov-13 23:01N 32°50' W 079°56'1 1.4
2017-Nov-13 22:30N 32°50' W 079°57'0 0.0
2017-Nov-13 22:00N 32°50' W 079°57'  
Track history (hours):
 
Tides and Currents Weather Stations Pressure Air Temp Water Temp Dewpoint Dewpoint Depression Visibility Wind Speed Wind Dir Waves Ship Positions

Sun Chief

Owner: Vane Line Bunkering INC, Philadelphia, PA. More information available from US FCC via Universal Licensing System and Coast Guard Vessel Documentation Center.

Last reported at 2017-Nov-16 14:03 UTC. Time now 2017-Dec-15 16:06 UTC.
Position N 32°46' W 079°53'.
Warning: this ship's position is 29 days out of date.

; draft 2.3 m.

Type: Tug. MMSI: 367590860.

Date/timePositionNaut miles runAvg speedWind from/ knotsBaromVisibWave heightAir tempDewpointWater temp
2017-Nov-16 14:03N 32°46' W 079°53'0 0.1
2017-Nov-16 13:57N 32°46' W 079°53'0 0.0
2017-Nov-16 13:30N 32°46' W 079°53'0 0.0
2017-Nov-16 13:00N 32°46' W 079°53'1 2.2
2017-Nov-16 12:30N 32°47' W 079°54'6 5.7
2017-Nov-16 11:30N 32°52' W 079°57'2 3.5
2017-Nov-16 11:00N 32°53' W 079°58'0 0.0
2017-Nov-16 10:30N 32°53' W 079°58'0 0.0
2017-Nov-16 10:00N 32°53' W 079°58'0 0.0
2017-Nov-16 09:30N 32°53' W 079°58'0 0.0
2017-Nov-16 09:00N 32°53' W 079°58'0 0.0
2017-Nov-16 08:30N 32°53' W 079°58'0 0.0
2017-Nov-16 08:00N 32°53' W 079°58'0 0.0
2017-Nov-16 07:30N 32°53' W 079°58'0 0.0
2017-Nov-16 07:00N 32°53' W 079°58'0 0.0
2017-Nov-16 06:31N 32°53' W 079°58'0 0.0
2017-Nov-16 06:00N 32°53' W 079°58'0 0.9
2017-Nov-16 05:30N 32°53' W 079°58'2 4.7
2017-Nov-16 05:00N 32°51' W 079°56'2 4.5
2017-Nov-16 04:30N 32°49' W 079°55'2 4.6
2017-Nov-16 04:01N 32°47' W 079°54'2 3.1
2017-Nov-16 03:30N 32°46' W 079°53'0 0.0
2017-Nov-16 03:00N 32°46' W 079°53'0 0.0
2017-Nov-16 02:30N 32°46' W 079°53'0 0.0
2017-Nov-16 02:00N 32°46' W 079°53'0 0.0
2017-Nov-16 01:30N 32°46' W 079°53'0 0.1
2017-Nov-16 01:00N 32°46' W 079°53'0 0.0
2017-Nov-16 00:30N 32°46' W 079°53'5 1.4
2017-Nov-15 20:51N 32°51' W 079°56'2 5.7
2017-Nov-15 20:30N 32°52' W 079°58'2 3.2
2017-Nov-15 20:00N 32°53' W 079°58'0 0.0
2017-Nov-15 19:30N 32°53' W 079°58'0 0.0
2017-Nov-15 19:00N 32°53' W 079°58'0 0.0
2017-Nov-15 18:30N 32°53' W 079°58'0 0.0
2017-Nov-15 18:00N 32°53' W 079°58'0 0.0
2017-Nov-15 17:30N 32°53' W 079°58'0 0.0
2017-Nov-15 17:00N 32°53' W 079°58'0 0.0
2017-Nov-15 16:30N 32°53' W 079°58'0 0.0
2017-Nov-15 16:00N 32°53' W 079°58'0 0.0
2017-Nov-15 14:21N 32°53' W 079°58'0 0.0
2017-Nov-15 14:00N 32°53' W 079°58'0 0.0
2017-Nov-15 13:31N 32°53' W 079°58'0 0.0
2017-Nov-15 13:00N 32°53' W 079°58'1 1.9
2017-Nov-15 12:31N 32°52' W 079°58'3 5.8
2017-Nov-15 12:00N 32°50' W 079°56'2 3.7
2017-Nov-15 11:30N 32°50' W 079°54'0 0.0
2017-Nov-15 11:01N 32°50' W 079°54'0 0.0
2017-Nov-15 10:30N 32°50' W 079°54'0 0.0
2017-Nov-15 10:00N 32°50' W 079°54'0 0.0
2017-Nov-15 09:30N 32°50' W 079°54'0 0.0
2017-Nov-15 09:01N 32°50' W 079°54'0 0.0
2017-Nov-15 08:30N 32°50' W 079°54'0 0.0
2017-Nov-15 08:01N 32°50' W 079°54'0 0.0
2017-Nov-15 07:30N 32°50' W 079°54'0 0.0
2017-Nov-15 07:01N 32°50' W 079°54'0 0.0
2017-Nov-15 06:31N 32°50' W 079°54'0 0.0
2017-Nov-15 06:00N 32°50' W 079°54'0 0.1
2017-Nov-15 05:30N 32°50' W 079°54'2 3.3
2017-Nov-15 05:01N 32°49' W 079°55'4 7.3
2017-Nov-15 04:31N 32°52' W 079°58'2 4.0
2017-Nov-15 04:00N 32°54' W 079°58'0 0.0
2017-Nov-15 03:30N 32°54' W 079°58'0 0.0
2017-Nov-15 03:01N 32°54' W 079°58'0 0.0
2017-Nov-15 02:30N 32°54' W 079°58'0 0.0
2017-Nov-15 02:00N 32°54' W 079°58'0 0.0
2017-Nov-15 01:30N 32°54' W 079°58'0 0.0
2017-Nov-15 01:00N 32°54' W 079°58'0 0.0
2017-Nov-15 00:30N 32°54' W 079°58'0 0.0
2017-Nov-15 00:00N 32°54' W 079°58'0 0.0
2017-Nov-14 23:30N 32°54' W 079°58'1 1.5
2017-Nov-14 23:00N 32°53' W 079°58'3 6.2
2017-Nov-14 22:31N 32°51' W 079°56'1 2.0
2017-Nov-14 22:01N 32°50' W 079°57'0 0.0
2017-Nov-14 21:31N 32°50' W 079°57'0 0.0
2017-Nov-14 21:00N 32°50' W 079°57'0 0.0
2017-Nov-14 20:30N 32°50' W 079°57'0 0.0
2017-Nov-14 20:00N 32°50' W 079°57'0 0.0
2017-Nov-14 19:30N 32°50' W 079°57'0 0.0
2017-Nov-14 19:00N 32°50' W 079°57'0 0.0
2017-Nov-14 18:31N 32°50' W 079°57'0 0.0
2017-Nov-14 18:00N 32°50' W 079°57'0 0.0
2017-Nov-14 17:31N 32°50' W 079°57'0 0.0
2017-Nov-14 17:00N 32°50' W 079°57'0 0.0
2017-Nov-14 16:31N 32°50' W 079°57'0 0.0
2017-Nov-14 16:01N 32°50' W 079°57'0 0.0
2017-Nov-14 15:30N 32°50' W 079°57'0 0.0
2017-Nov-14 15:00N 32°50' W 079°57'0 0.0
2017-Nov-14 14:31N 32°50' W 079°57'0 0.0
2017-Nov-14 14:00N 32°50' W 079°57'0 0.1
2017-Nov-14 13:19N 32°50' W 079°57'1 2.0
2017-Nov-14 13:00N 32°50' W 079°56'3 7.0
2017-Nov-14 12:30N 32°53' W 079°58'1 2.1
2017-Nov-14 12:00N 32°54' W 079°58'0 0.0
2017-Nov-14 11:30N 32°54' W 079°58'0 0.0
2017-Nov-14 11:00N 32°54' W 079°58'0 0.0
2017-Nov-14 10:31N 32°54' W 079°58'0 0.0
2017-Nov-14 10:00N 32°54' W 079°58'0 0.0
2017-Nov-14 09:30N 32°54' W 079°58'0 0.0
2017-Nov-14 09:00N 32°54' W 079°58'0 0.0
2017-Nov-14 08:30N 32°54' W 079°58'0 0.3
2017-Nov-14 08:00N 32°54' W 079°57'1 2.0
2017-Nov-14 07:30N 32°53' W 079°58'3 6.1
2017-Nov-14 07:00N 32°51' W 079°56'1 2.3
2017-Nov-14 06:30N 32°50' W 079°56'0 0.0
2017-Nov-14 06:00N 32°50' W 079°56'0 0.0
2017-Nov-14 05:31N 32°50' W 079°56'0 0.0
2017-Nov-14 05:01N 32°50' W 079°56'0 0.0
2017-Nov-14 04:30N 32°50' W 079°56'0 0.0
2017-Nov-14 04:01N 32°50' W 079°56'0 0.0
2017-Nov-14 03:31N 32°50' W 079°56'0 0.0
2017-Nov-14 03:00N 32°50' W 079°56'0 0.0
2017-Nov-14 02:30N 32°50' W 079°56'0 0.0
2017-Nov-14 02:00N 32°50' W 079°56'0 0.0
2017-Nov-14 01:30N 32°50' W 079°56'0 0.0
2017-Nov-14 01:00N 32°50' W 079°56'0 0.0
2017-Nov-14 00:30N 32°50' W 079°56'0 0.0
2017-Nov-14 00:00N 32°50' W 079°56'0 0.0
2017-Nov-13 23:30N 32°50' W 079°56'0 0.2
2017-Nov-13 23:01N 32°50' W 079°56'1 1.4
2017-Nov-13 22:30N 32°50' W 079°57'0 0.0
2017-Nov-13 22:00N 32°50' W 079°57'  

Dump ship's entire track history